createdAt,value
2023-02-11T00:00:54.413Z,13.47
2023-02-11T00:05:58.597Z,9.67
2023-02-11T00:11:00.405Z,12.70
2023-02-11T00:16:10.268Z,18.63
2023-02-11T00:21:17.853Z,15.47
2023-02-11T00:26:26.031Z,15.23
2023-02-11T00:31:28.194Z,8.07
2023-02-11T00:36:30.412Z,13.03
2023-02-11T00:41:32.710Z,16.70
2023-02-11T00:46:34.951Z,11.67
2023-02-11T00:51:37.089Z,15.43
2023-02-11T00:56:39.076Z,14.13
2023-02-11T01:01:41.444Z,9.57
2023-02-11T01:06:44.691Z,11.57
2023-02-11T01:11:46.791Z,13.57
2023-02-11T01:16:49.025Z,13.60
2023-02-11T01:21:51.045Z,13.90
2023-02-11T01:26:57.212Z,15.53
2023-02-11T01:32:00.916Z,12.43
2023-02-11T01:37:02.861Z,14.30
2023-02-11T01:42:05.156Z,13.10
2023-02-11T01:47:07.572Z,16.60
2023-02-11T01:52:19.629Z,11.60
2023-02-11T01:57:27.426Z,14.27
2023-02-11T02:02:37.191Z,15.90
2023-02-11T02:07:49.728Z,15.47
2023-02-11T02:12:51.724Z,16.97
2023-02-11T02:18:03.713Z,14.27
2023-02-11T02:23:44.604Z,24.33
2023-02-11T02:29:39.779Z,13.93
2023-02-11T02:34:50.176Z,16.97
2023-02-11T02:39:51.947Z,15.27
2023-02-11T02:44:56.107Z,14.60
2023-02-11T02:49:58.248Z,12.70
2023-02-11T02:55:20.256Z,15.97
2023-02-11T03:00:42.325Z,16.53
2023-02-11T03:06:05.006Z,13.03
2023-02-11T03:11:09.651Z,11.13
2023-02-11T03:16:22.362Z,12.60
2023-02-11T03:21:25.687Z,10.97
2023-02-11T03:26:38.865Z,14.43
2023-02-11T03:31:52.927Z,10.00
2023-02-11T03:36:59.845Z,15.93
2023-02-11T03:42:04.108Z,15.73
2023-02-11T03:47:09.304Z,13.40
2023-02-11T03:52:13.177Z,18.97
2023-02-11T03:57:15.108Z,17.30
2023-02-11T04:02:17.250Z,14.27
2023-02-11T04:07:19.143Z,13.17
2023-02-11T04:12:21.174Z,16.43
2023-02-11T04:17:23.033Z,13.83
2023-02-11T04:22:24.851Z,17.33
2023-02-11T04:27:26.622Z,13.40
2023-02-11T04:32:28.596Z,17.20
2023-02-11T04:37:30.416Z,13.70
2023-02-11T04:42:32.284Z,13.53
2023-02-11T04:47:34.520Z,15.10
2023-02-11T04:52:36.459Z,16.57
2023-02-11T04:57:38.473Z,22.20
2023-02-11T05:02:40.386Z,16.60
2023-02-11T05:07:42.157Z,15.00
2023-02-11T05:12:44.081Z,14.67
2023-02-11T05:17:46.051Z,17.40
2023-02-11T05:22:48.277Z,23.40
2023-02-11T05:27:50.198Z,18.60
2023-02-11T05:32:52.130Z,18.47
2023-02-11T05:37:54.337Z,19.43
2023-02-11T05:42:56.288Z,17.03
2023-02-11T05:47:58.286Z,19.17
2023-02-11T05:53:00.386Z,27.27
2023-02-11T05:58:02.824Z,21.50
2023-02-11T06:03:04.970Z,19.10
2023-02-11T06:08:06.900Z,20.27
2023-02-11T06:13:09.035Z,21.40
2023-02-11T06:18:11.153Z,24.73
2023-02-11T06:23:13.084Z,21.13
2023-02-11T06:28:14.894Z,24.83
2023-02-11T06:33:16.794Z,25.17
2023-02-11T06:38:18.588Z,31.33
2023-02-11T06:43:20.443Z,31.90
2023-02-11T06:48:23.485Z,22.30
2023-02-11T06:53:25.415Z,23.67
2023-02-11T06:58:27.326Z,25.87
2023-02-11T07:03:30.472Z,25.47
2023-02-11T07:08:36.677Z,22.83
2023-02-11T07:13:38.804Z,33.27
2023-02-11T07:18:41.289Z,27.80
2023-02-11T07:23:43.543Z,29.80
2023-02-11T07:28:45.888Z,30.63
2023-02-11T07:33:48.160Z,33.10
2023-02-11T07:38:50.465Z,30.80
2023-02-11T07:43:53.205Z,36.37
2023-02-11T07:48:55.816Z,39.10
2023-02-11T07:53:59.467Z,33.67
2023-02-11T07:59:03.402Z,42.97
2023-02-11T08:04:05.452Z,40.43
2023-02-11T08:09:09.546Z,32.20
2023-02-11T08:14:12.459Z,34.83
2023-02-11T08:19:15.762Z,56.70
2023-02-11T08:24:17.567Z,41.70
2023-02-11T08:29:19.380Z,37.63
2023-02-11T08:34:21.992Z,32.67
2023-02-11T08:39:23.771Z,35.20
2023-02-11T08:44:25.857Z,32.10
2023-02-11T08:49:27.727Z,40.13
2023-02-11T08:54:31.264Z,39.73
2023-02-11T08:59:33.300Z,44.50
2023-02-11T09:04:35.214Z,39.10
2023-02-11T09:09:37.058Z,41.50
2023-02-11T09:14:39.167Z,38.27
2023-02-11T09:19:41.196Z,44.83
2023-02-11T09:24:43.115Z,42.37
2023-02-11T09:29:44.947Z,45.67
2023-02-11T09:34:46.866Z,41.03
2023-02-11T09:39:48.955Z,47.07
2023-02-11T09:44:51.102Z,52.80
2023-02-11T09:50:00.175Z,47.00
2023-02-11T09:55:18.708Z,49.13
2023-02-11T10:01:14.562Z,44.23
2023-02-11T10:06:28.397Z,54.37
2023-02-11T10:11:46.319Z,52.40
2023-02-11T10:17:09.971Z,56.10
2023-02-11T10:22:22.308Z,55.43
2023-02-11T10:27:32.259Z,55.60
2023-02-11T10:32:52.763Z,50.07
2023-02-11T10:37:56.041Z,52.40
2023-02-11T10:43:04.553Z,47.27
2023-02-11T10:48:27.059Z,50.03
2023-02-11T10:53:29.195Z,54.23
2023-02-11T10:58:35.283Z,47.97
2023-02-11T11:03:45.736Z,56.80
2023-02-11T11:08:48.961Z,51.70
2023-02-11T11:13:53.882Z,46.40
2023-02-11T11:19:08.031Z,50.20
2023-02-11T11:24:24.135Z,46.03
2023-02-11T11:29:35.776Z,49.00
2023-02-11T11:34:41.836Z,45.17
2023-02-11T11:39:53.045Z,50.83
2023-02-11T11:45:02.439Z,48.97
2023-02-11T11:50:23.180Z,48.50
2023-02-11T11:55:29.318Z,52.00
2023-02-11T12:00:50.007Z,51.80
2023-02-11T12:06:07.385Z,48.40
2023-02-11T12:11:29.526Z,53.00
2023-02-11T12:16:34.704Z,46.80
2023-02-11T12:22:01.328Z,50.27
2023-02-11T12:27:18.570Z,50.03
2023-02-11T12:32:36.450Z,47.27
2023-02-11T12:38:06.336Z,56.30
2023-02-11T12:43:29.915Z,57.43
2023-02-11T12:49:10.309Z,57.87
2023-02-11T12:54:30.585Z,56.77
2023-02-11T12:59:49.960Z,49.83
2023-02-11T13:04:59.862Z,52.67
2023-02-11T13:10:13.835Z,48.40
2023-02-11T13:15:16.237Z,58.00
2023-02-11T13:20:49.267Z,48.37
2023-02-11T13:25:58.679Z,53.87
2023-02-11T13:31:07.001Z,51.93
2023-02-11T13:36:08.802Z,49.03
2023-02-11T13:41:24.730Z,47.20
2023-02-11T13:46:48.971Z,48.50
2023-02-11T13:51:52.159Z,44.43
2023-02-11T13:57:22.183Z,47.70
2023-02-11T14:02:50.517Z,47.80
2023-02-11T14:08:29.566Z,51.13
2023-02-11T14:13:47.249Z,55.67
2023-02-11T14:18:49.155Z,45.13
2023-02-11T14:23:56.039Z,44.97
2023-02-11T14:29:17.920Z,46.13
2023-02-11T14:34:46.217Z,49.33
2023-02-11T14:39:54.239Z,48.70
2023-02-11T14:44:59.012Z,49.77
2023-02-11T14:50:01.470Z,44.40
2023-02-11T14:55:21.439Z,55.53
2023-02-11T15:00:23.598Z,43.30
2023-02-11T15:05:28.953Z,48.57
2023-02-11T15:10:53.888Z,50.20
2023-02-11T15:16:00.243Z,45.27
2023-02-11T15:21:02.645Z,44.53
2023-02-11T15:26:13.363Z,45.43
2023-02-11T15:31:17.282Z,52.57
2023-02-11T15:36:23.715Z,45.63
2023-02-11T15:41:37.682Z,52.67
2023-02-11T15:46:40.380Z,42.33
2023-02-11T15:51:46.564Z,50.17
2023-02-11T15:56:52.260Z,48.40
2023-02-11T16:01:55.450Z,46.00
2023-02-11T16:06:57.836Z,57.87
2023-02-11T16:12:07.513Z,48.67
2023-02-11T16:17:13.219Z,52.03
2023-02-11T16:22:19.596Z,56.53
2023-02-11T16:27:30.421Z,57.73
2023-02-11T16:32:32.567Z,50.67
2023-02-11T16:37:35.404Z,55.97
2023-02-11T16:42:37.296Z,61.70
2023-02-11T16:47:41.556Z,51.43
2023-02-11T16:52:46.382Z,49.63
2023-02-11T16:57:50.283Z,55.47
2023-02-11T17:02:52.706Z,56.57
2023-02-11T17:07:54.635Z,58.37
2023-02-11T17:12:56.356Z,55.80
2023-02-11T17:17:59.065Z,53.10
2023-02-11T17:23:00.916Z,52.97
2023-02-11T17:28:07.422Z,53.67
2023-02-11T17:33:09.548Z,57.07
2023-02-11T17:38:11.516Z,63.90
2023-02-11T17:43:13.339Z,59.60
2023-02-11T17:48:15.122Z,58.90
2023-02-11T17:53:16.928Z,59.53
2023-02-11T17:58:18.686Z,59.33
2023-02-11T18:03:20.780Z,55.33
2023-02-11T18:08:22.822Z,59.27
2023-02-11T18:13:25.044Z,56.23
2023-02-11T18:18:27.277Z,66.13
2023-02-11T18:23:29.618Z,62.50
2023-02-11T18:28:31.934Z,63.00
2023-02-11T18:33:34.388Z,65.20
2023-02-11T18:38:37.116Z,80.10
2023-02-11T18:43:40.172Z,66.47
2023-02-11T18:48:44.708Z,59.20
2023-02-11T18:53:47.123Z,59.37
2023-02-11T18:58:49.078Z,60.43
2023-02-11T19:03:51.326Z,66.20
2023-02-11T19:08:56.877Z,58.67
2023-02-11T19:14:00.740Z,59.73
2023-02-11T19:19:03.066Z,57.17
2023-02-11T19:24:08.869Z,67.20
2023-02-11T19:29:11.055Z,74.30
2023-02-11T19:34:14.771Z,65.97
2023-02-11T19:39:17.176Z,68.40
2023-02-11T19:44:19.074Z,67.70
2023-02-11T19:49:26.353Z,74.60
2023-02-11T19:54:31.186Z,78.53
2023-02-11T19:59:33.232Z,60.93
2023-02-11T20:04:35.086Z,71.83
2023-02-11T20:09:37.114Z,61.53
2023-02-11T20:14:39.380Z,62.80
2023-02-11T20:19:41.512Z,59.70
2023-02-11T20:24:43.746Z,58.27
2023-02-11T20:29:45.587Z,57.97
2023-02-11T20:34:47.989Z,55.67
2023-02-11T20:39:50.974Z,57.20
2023-02-11T20:44:53.124Z,53.30
2023-02-11T20:49:55.846Z,62.60
2023-02-11T20:54:57.707Z,58.43
2023-02-11T20:59:59.630Z,54.43
2023-02-11T21:05:01.422Z,56.23
2023-02-11T21:10:04.056Z,56.03
2023-02-11T21:15:07.767Z,60.37
2023-02-11T21:20:10.241Z,51.40
2023-02-11T21:25:12.228Z,57.50
2023-02-11T21:30:14.885Z,49.37
2023-02-11T21:35:17.075Z,51.90
2023-02-11T21:40:22.141Z,49.03
2023-02-11T21:45:25.701Z,57.70
2023-02-11T21:50:28.025Z,48.63
2023-02-11T21:55:30.492Z,46.27
2023-02-11T22:00:33.318Z,48.67
2023-02-11T22:05:35.351Z,50.63
2023-02-11T22:10:37.641Z,51.63
2023-02-11T22:15:39.719Z,43.60
2023-02-11T22:20:41.797Z,50.80
2023-02-11T22:25:46.779Z,44.23
2023-02-11T22:30:56.662Z,39.90
2023-02-11T22:36:07.965Z,37.97
2023-02-11T22:41:11.599Z,41.23
2023-02-11T22:46:17.187Z,40.93
2023-02-11T22:51:22.765Z,41.60
2023-02-11T22:56:25.558Z,35.17
2023-02-11T23:01:42.650Z,39.70
2023-02-11T23:06:45.886Z,32.23
2023-02-11T23:11:49.336Z,34.67
2023-02-11T23:16:51.513Z,31.37
2023-02-11T23:21:53.386Z,28.50
2023-02-11T23:26:55.223Z,25.93
2023-02-11T23:31:58.918Z,21.93
2023-02-11T23:37:01.048Z,17.57
2023-02-11T23:42:03.260Z,18.10
2023-02-11T23:47:05.105Z,22.23
2023-02-11T23:52:07.146Z,19.63
2023-02-11T23:57:09.093Z,16.67
